Thursday, November 21, 2019, 10:10 PM EST
Back to Local

KIJD, Willimantic Windham Airport

Location: North Windham, CT, United States Lat: 41.75
Local Time: 10:10 PM EST ( 3:10 GMT) Lon: -72.183
Time Zone: US/Eastern Elev: 246 ft

Show me the last for .
Show Coded

Time T Td Feel RH Dir Speed Gust Alt SLP Vis Weather Sky Remarks
2019-11-21 21:52 35 32 - 88 - Calm - 30.05 30.05 10 CLR None
2019-11-21 20:52 34 31 - 88 - Calm - 30.06 30.06 10 CLR None
2019-11-21 19:52 33 30 - 88 - Calm - 30.08 30.08 10 CLR None
2019-11-21 18:52 34 30 - 85 - Calm - 30.09 30.09 9 CLR 6-hr Min Temp (7pm): 34.0°F
6-hr Max Temp (7pm): 48.9°F
2019-11-21 17:52 35 30 - 81 - Calm - 30.09 30.10 10 CLR None
2019-11-21 16:52 40 30 - 67 - Calm - 30.09 30.09 10 CLR Peak wind: 31 mph (27 kts) from 30° at 56 min
2019-11-21 15:52 47 29 46 49 260° 3 - 30.09 30.09 10 CLR None
2019-11-21 14:52 48 29 45 47 270° 6 - 30.09 30.09 10 CLR None
2019-11-21 13:52 49 30 48 47 Variable 3 - 30.09 30.09 10 CLR None
2019-11-21 12:52 47 30 44 51 330° 6 - 30.11 30.11 10 CLR 6-hr Min Temp (1pm): 28.0°F
6-hr Max Temp (1pm): 46.9°F
2019-11-21 11:52 45 30 41 55 330° 8 - 30.12 30.12 10 CLR None
2019-11-21 10:52 44 30 38 57 340° 12 - 30.16 30.16 10 CLR None
2019-11-21 09:52 42 29 36 59 330° 10 - 30.17 30.18 10 CLR None
2019-11-21 08:52 38 29 32 69 340° 8 - 30.18 30.18 10 CLR None
2019-11-21 07:52 33 30 - 88 - Calm - 30.16 30.17 10 CLR None
2019-11-21 06:52 29 27 - 92 - Calm - 30.15 30.15 10 CLR 24-hr Precip Total (7am): 0.01"
6-hr Min Temp (7am): 28.9°F
6-hr Max Temp (7am): 35.1°F
2019-11-21 05:52 32 29 29 88 20° 3 - 30.14 30.14 10 CLR None
2019-11-21 04:52 32 29 29 88 320° 3 - 30.12 30.13 10 CLR None
2019-11-21 03:52 33 30 30 88 330° 3 - 30.10 30.10 10 CLR None
2019-11-21 02:52 33 30 29 88 10° 5 - 30.09 30.09 10 CLR None
2019-11-21 01:52 34 30 31 85 340° 3 - 30.08 30.09 10 CLR None
2019-11-21 00:52 35 31 30 84 350° 6 - 30.06 30.07 10 FEW035 6-hr Min Temp (1am): 35.1°F
6-hr Max Temp (1am): 37.9°F
2019-11-20 23:52 37 31 32 78 340° 7 - 30.06 30.06 10 OVC037 24-hr Min Temp (12am): 36.0°F
24-hr Max Temp (12am): 41.0°F
2019-11-20 22:52 37 32 29 81 330° 12 - 30.05 30.05 10 OVC038 None

Support USWX by starting your Amazon purchase here.